Portada
METAR-TAF:

METAR-TAF

Aeroports :

Àqaba, Jordània

latitud: 29-38N, longitud: 035-01E, altitud: 53 m

Observació

L'informe es va fer fa 30 minuts, a les 20:00 UTC
Vent 5 kt del Nord
Temperatura 17°C
Humitat 59%
Pressió 1014 hPa
Visibilitat 10 km o més
sense núvols per sota de 1500 mi sense presència de cumulonimbus.

METAR: OJAQ 042000Z 01005KT CAVOK 17/09 Q1014 NOSIG

Hora: 22:30 (20:30 UTC)

Pronòstic

L'informe es va fer fa 3 hores i 30 minuts, a les 17:00 UTC
Pronòstic vàlid del 04 a les 18 UTC al 05 a les 24 UTC
Vent 12 kt del Nord/Nord-Oest
Visibilitat 10 km o més
sense núvols per sota de 1500 mi sense presència de cumulonimbus.
Evolucionant progressivament
l' 05 a les 02 UTC al 05 a les 04 UTC
Visibilitat: 7000 m
Núvols disperses a una alçada de 4000 ft

TAF: OJAQ 041700Z 0418/0524 34012KT CAVOK BECMG 0502/0504 7000 SCT040

Observacions i pronòstics meteorològics de més de 4000 aeroports (METAR i TAF).

Les estacions disponibles són els punts grocs i vermells al mapa.

Posi el ratolí al punt desitjat per veure el nom de l'estació.

Feu clic per veure les observacions i els pronòstics meteorològics.

Per canviar el mapa: feu clic els botons verds amb una creu de color negre per apropar; al botó verd amb un guió per allunyar la imatge; o en les fletxes verdes per a mapes adjacents.


METAR-TAF: